Terminal Aerodrome Forecast
Issued by NWS

Home | Current Version | Previous Version | Text Only | Print | Product List | Glossary On
Versions: 1 2 3 4 5 6 7 8 9 10 11 12
118
FTUS42 TJSJ 202339
TAFJSJ
TAF
TJSJ 202339Z 2100/2124 33003KT P6SM VCSH FEW030 FEW080
     FM211400 34007KT P6SM FEW025
     FM212200 01008KT P6SM VCSH SCT030=

USA.gov is the U.S. government's official web portal to all federal, state and local government web resources and services.